Time;durP1;ratioP1;P1;durP2;ratioP2;P2;SDS_P1;SDS_P2;PMS_P1;PMS_P2;Temp;Humidity;BMP_temperature;BMP_pressure;BME280_temperature;BME280_humidity;BME280_pressure;Samples;Min_cycle;Max_cycle;Signal;HPM_P1;HPM_P2
2022/05/20 00:01:37;;;;;;;5.75;0.90;;;13.60;99.90;;;;;;5069095;28;20107;-61
2022/05/20 00:04:03;;;;;;;4.82;1.33;;;13.60;99.90;;;;;;5069159;28;20032;-61
2022/05/20 00:06:28;;;;;;;5.57;2.53;;;13.60;99.90;;;;;;5070528;28;20024;-61
2022/05/20 00:08:54;;;;;;;5.15;1.02;;;13.70;99.90;;;;;;5071967;28;20012;-61
2022/05/20 00:11:20;;;;;;;7.50;1.40;;;13.60;99.90;;;;;;5071945;28;20024;-61
2022/05/20 00:13:46;;;;;;;6.13;1.38;;;13.60;99.90;;;;;;5071915;28;20044;-61
2022/05/20 00:16:12;;;;;;;5.53;1.08;;;13.60;99.90;;;;;;5072046;28;20027;-61
2022/05/20 00:18:38;;;;;;;7.68;1.23;;;13.60;99.90;;;;;;5071789;28;20107;-61
2022/05/20 00:21:04;;;;;;;7.50;1.52;;;13.70;99.90;;;;;;5071702;28;20028;-61
2022/05/20 00:23:31;;;;;;;8.55;1.52;;;13.60;99.90;;;;;;5071840;28;20029;-61
2022/05/20 00:25:56;;;;;;;5.68;1.13;;;13.50;99.90;;;;;;5071710;28;20508;-61
2022/05/20 00:28:24;;;;;;;7.22;1.63;;;13.60;99.90;;;;;;5071413;28;20025;-63
2022/05/20 00:30:57;;;;;;;4.35;1.15;;;13.60;99.90;;;;;;5071575;28;20101;-61
2022/05/20 00:33:24;;;;;;;6.15;2.72;;;13.60;99.90;;;;;;5071419;28;20492;-61
2022/05/20 00:35:50;;;;;;;5.07;2.17;;;13.60;99.90;;;;;;5071517;28;20029;-61
2022/05/20 00:38:16;;;;;;;5.43;1.17;;;13.60;99.90;;;;;;5071574;28;20028;-61
2022/05/20 00:40:42;;;;;;;6.00;1.75;;;13.50;99.90;;;;;;5071421;28;20461;-61
2022/05/20 00:43:26;;;;;;;7.38;1.67;;;13.50;99.90;;;;;;5071215;28;20091;-61
2022/05/20 00:45:54;;;;;;;6.65;1.70;;;13.50;99.90;;;;;;5051293;28;20029;-61
2022/05/20 00:48:21;;;;;;;4.85;1.15;;;13.50;99.90;;;;;;5068934;28;20028;-62
2022/05/20 00:50:50;;;;;;;4.95;1.42;;;13.50;99.90;;;;;;5071555;28;20029;-62
2022/05/20 00:53:21;;;;;;;5.82;1.48;;;13.50;99.90;;;;;;5053536;28;20045;-62
2022/05/20 00:55:47;;;;;;;7.15;1.17;;;13.50;99.90;;;;;;5071121;28;20031;-62
2022/05/20 00:58:18;;;;;;;1.63;1.00;;;13.40;99.90;;;;;;5070715;28;20032;-62
2022/05/20 01:00:48;;;;;;;5.40;1.23;;;13.40;99.90;;;;;;5071037;28;20059;-62
2022/05/20 01:03:15;;;;;;;;;;;13.40;99.90;;;;;;5069038;28;20032;-62
2022/05/20 01:05:47;;;;;;;6.80;1.52;;;13.30;99.90;;;;;;5067910;28;20234;-62
2022/05/20 01:08:16;;;;;;;6.65;1.80;;;13.30;99.90;;;;;;5070275;28;20524;-61
2022/05/20 01:10:42;;;;;;;7.30;1.67;;;13.20;99.90;;;;;;5070868;28;20021;-62
2022/05/20 01:13:10;;;;;;;3.92;1.40;;;13.10;99.90;;;;;;5070378;28;20040;-62
2022/05/20 01:15:36;;;;;;;8.02;2.47;;;13.10;99.90;;;;;;5070734;28;20473;-62
2022/05/20 01:18:03;;;;;;;7.25;1.88;;;13.10;99.90;;;;;;5070840;28;20036;-62
2022/05/20 01:20:35;;;;;;;4.78;1.42;;;13.00;99.90;;;;;;5070781;28;20029;-62
2022/05/20 01:23:05;;;;;;;9.90;2.22;;;12.90;99.90;;;;;;5070791;28;20035;-62
2022/05/20 01:25:31;;;;;;;7.10;1.70;;;12.90;99.90;;;;;;5070582;28;20021;-62
2022/05/20 01:27:57;;;;;;;8.27;1.70;;;12.80;99.90;;;;;;5070565;28;20126;-62
2022/05/20 01:30:25;;;;;;;6.03;1.73;;;12.80;99.90;;;;;;5070456;28;20400;-62
2022/05/20 01:32:52;;;;;;;4.82;1.80;;;12.80;99.90;;;;;;5070326;28;20436;-62
2022/05/20 01:35:24;;;;;;;6.35;1.27;;;12.80;99.90;;;;;;5070531;28;20021;-62
2022/05/20 01:37:50;;;;;;;8.48;1.85;;;12.70;99.90;;;;;;5070364;28;20119;-62
2022/05/20 01:40:16;;;;;;;7.43;2.08;;;12.60;99.90;;;;;;5070264;28;20108;-62
2022/05/20 01:42:50;;;;;;;4.65;1.70;;;12.60;99.90;;;;;;5070248;28;20444;-62
2022/05/20 01:45:22;;;;;;;5.82;2.13;;;12.60;99.90;;;;;;5068488;28;20023;-62
2022/05/20 01:47:58;;;;;;;9.98;1.60;;;12.50;99.90;;;;;;5050894;28;20052;-62
2022/05/20 01:50:37;;;;;;;10.13;2.28;;;12.50;99.90;;;;;;5047323;28;20295;-61
2022/05/20 01:53:13;;;;;;;5.25;1.58;;;12.50;99.90;;;;;;5064770;28;20067;-62
2022/05/20 01:55:43;;;;;;;6.15;1.48;;;12.50;99.90;;;;;;5067305;28;20098;-62
2022/05/20 01:58:16;;;;;;;11.27;1.90;;;12.50;99.90;;;;;;5066319;28;20029;-62
2022/05/20 02:00:45;;;;;;;9.38;1.40;;;12.50;99.90;;;;;;5066930;28;20052;-61
2022/05/20 02:03:14;;;;;;;5.95;1.60;;;12.50;99.90;;;;;;5066607;28;20199;-62
2022/05/20 02:06:00;;;;;;;7.10;1.90;;;12.40;99.90;;;;;;5067077;28;20025;-62
2022/05/20 02:08:41;;;;;;;7.57;1.90;;;12.40;99.90;;;;;;5067129;28;20036;-62
2022/05/20 02:11:25;;;;;;;5.78;1.40;;;12.40;99.90;;;;;;5066657;28;20024;-62
2022/05/20 02:14:13;;;;;;;9.00;1.88;;;12.40;99.90;;;;;;5068060;28;20090;-62
2022/05/20 02:16:44;;;;;;;6.95;1.70;;;12.50;99.90;;;;;;5060247;28;20086;-62
2022/05/20 02:19:27;;;;;;;;;;;12.50;99.90;;;;;;5070296;28;20370;-62
2022/05/20 02:21:57;;;;;;;6.53;1.98;;;12.60;99.90;;;;;;5069730;28;19948;-62
2022/05/20 02:24:26;;;;;;;6.97;2.33;;;12.60;99.90;;;;;;5069924;28;20485;-62
2022/05/20 02:26:58;;;;;;;11.52;2.25;;;12.60;99.90;;;;;;5069580;28;20037;-62
2022/05/20 02:29:31;;;;;;;9.65;2.80;;;12.50;99.90;;;;;;5069554;28;20016;-62
2022/05/20 02:32:14;;;;;;;8.00;2.30;;;12.50;99.90;;;;;;5069512;28;20082;-62
2022/05/20 02:34:41;;;;;;;4.28;1.90;;;12.40;99.90;;;;;;5069854;28;20051;-62
2022/05/20 02:37:28;;;;;;;7.57;2.40;;;12.40;99.90;;;;;;5069641;28;20457;-62
2022/05/20 02:39:54;;;;;;;9.48;2.53;;;12.40;99.90;;;;;;5069508;28;20066;-62
2022/05/20 02:42:20;;;;;;;5.50;2.20;;;12.30;99.90;;;;;;5069362;28;20020;-62
2022/05/20 02:44:46;;;;;;;10.65;2.15;;;12.40;99.90;;;;;;5069435;28;20058;-62
2022/05/20 02:47:11;;;;;;;7.25;2.28;;;12.40;99.90;;;;;;5069737;28;20078;-62
2022/05/20 02:49:38;;;;;;;7.57;2.83;;;12.40;99.90;;;;;;5069624;28;20452;-62
2022/05/20 02:52:04;;;;;;;14.82;3.00;;;12.40;99.90;;;;;;5065945;28;20082;-62
2022/05/20 02:54:30;;;;;;;7.10;2.67;;;12.40;99.90;;;;;;5069468;28;20439;-61
2022/05/20 02:56:56;;;;;;;5.57;2.25;;;12.40;99.90;;;;;;5069486;28;20029;-62
2022/05/20 03:04:51;;;;;;;7.90;3.10;;;12.30;99.90;;;;;;5069814;28;20047;-62
2022/05/20 03:07:17;;;;;;;8.40;2.08;;;12.30;99.90;;;;;;5069332;28;20029;-61
2022/05/20 03:09:43;;;;;;;3.95;2.08;;;12.30;99.90;;;;;;5070842;28;20025;-62
2022/05/20 03:12:10;;;;;;;7.00;2.72;;;12.30;99.90;;;;;;5072943;28;20699;-62
2022/05/20 03:14:38;;;;;;;6.47;2.72;;;12.40;99.90;;;;;;5073151;28;20029;-62
2022/05/20 03:17:04;;;;;;;7.20;2.75;;;12.40;99.90;;;;;;5073053;28;20029;-61
2022/05/20 03:19:31;;;;;;;5.15;2.08;;;12.40;99.90;;;;;;5073578;28;20035;-62
2022/05/20 03:21:58;;;;;;;8.90;2.88;;;12.40;99.90;;;;;;5073149;28;20024;-62
2022/05/20 03:24:23;;;;;;;7.90;2.78;;;12.40;99.90;;;;;;5072886;28;20024;-62
2022/05/20 03:26:49;;;;;;;13.32;3.25;;;12.40;99.90;;;;;;5072924;28;20094;-62
2022/05/20 03:29:15;;;;;;;9.45;4.10;;;12.50;99.90;;;;;;5072860;28;20115;-62
2022/05/20 03:31:41;;;;;;;9.38;2.90;;;12.40;99.90;;;;;;5072698;28;20099;-62
2022/05/20 03:34:08;;;;;;;6.20;2.50;;;12.40;99.90;;;;;;5072619;28;20029;-62
2022/05/20 03:36:42;;;;;;;8.02;3.05;;;12.40;99.90;;;;;;5072915;28;20042;-61
2022/05/20 03:39:10;;;;;;;10.45;2.75;;;12.40;99.90;;;;;;5072853;28;20021;-62
2022/05/20 03:41:38;;;;;;;6.97;2.33;;;12.40;99.90;;;;;;5072479;28;20031;-62
2022/05/20 03:44:05;;;;;;;10.75;3.35;;;12.40;99.90;;;;;;5069254;28;20086;-62
2022/05/20 03:46:31;;;;;;;7.50;2.83;;;12.40;99.90;;;;;;5072651;28;20024;-62
2022/05/20 03:48:59;;;;;;;8.60;2.67;;;12.50;99.90;;;;;;5072702;28;20403;-62
2022/05/20 03:51:24;;;;;;;6.47;2.88;;;12.60;99.90;;;;;;5072486;28;20028;-62
2022/05/20 03:53:50;;;;;;;5.22;1.98;;;12.60;99.90;;;;;;5072098;28;20520;-62
2022/05/20 03:56:16;;;;;;;6.28;2.90;;;12.60;99.90;;;;;;5072169;28;20107;-62
2022/05/20 03:58:41;;;;;;;5.85;2.45;;;12.50;99.90;;;;;;5072204;28;20050;-62
2022/05/20 04:03:54;;;;;;;8.20;3.25;;;12.60;99.90;;;;;;5072523;28;20078;-62
2022/05/20 04:06:20;;;;;;;7.97;2.88;;;12.60;99.90;;;;;;5072487;28;20108;-62
2022/05/20 04:08:46;;;;;;;8.90;2.70;;;12.70;99.90;;;;;;5072214;28;20109;-61
2022/05/20 04:11:13;;;;;;;6.78;1.85;;;12.70;99.90;;;;;;5071809;28;20032;-62
2022/05/20 04:13:40;;;;;;;9.30;2.22;;;12.60;99.90;;;;;;5072108;28;20040;-62
2022/05/20 04:16:07;;;;;;;5.43;3.47;;;12.70;99.90;;;;;;5070461;28;20393;-62
2022/05/20 04:18:33;;;;;;;5.82;2.58;;;12.70;99.90;;;;;;5068596;28;20024;-62
2022/05/20 04:20:59;;;;;;;11.95;3.72;;;12.70;99.90;;;;;;5069601;28;20021;-61
2022/05/20 04:23:25;;;;;;;8.82;2.72;;;12.80;99.90;;;;;;5071968;28;20025;-62
2022/05/20 04:25:50;;;;;;;7.68;3.03;;;12.80;99.90;;;;;;5071920;28;20029;-61
2022/05/20 04:28:16;;;;;;;6.60;2.55;;;12.80;99.90;;;;;;5071771;28;20081;-62
2022/05/20 04:30:42;;;;;;;8.25;2.75;;;12.80;99.90;;;;;;5070708;28;20028;-62
2022/05/20 04:33:08;;;;;;;8.30;3.30;;;12.90;99.90;;;;;;5068615;28;20468;-61
2022/05/20 04:35:34;;;;;;;13.60;2.90;;;12.90;99.90;;;;;;5068809;28;20051;-62
2022/05/20 04:38:00;;;;;;;11.77;2.85;;;12.90;99.90;;;;;;5070613;28;20675;-62
2022/05/20 04:40:25;;;;;;;7.25;3.00;;;12.90;99.90;;;;;;5071588;28;20386;-62
2022/05/20 04:48:23;;;;;;;3.35;2.35;;;13.00;99.90;;;;;;5071394;28;20078;-62
2022/05/20 04:50:48;;;;;;;5.57;2.55;;;13.00;99.90;;;;;;5071039;28;20041;-62
2022/05/20 04:54:49;;;;;;;9.25;3.33;;;13.00;99.90;;;;;;5071110;28;20056;-62
2022/05/20 04:55:59;;;;;;;5.60;2.40;;;13.00;99.90;;;;;;5070366;28;20388;-62
2022/05/20 04:58:25;;;;;;;8.50;2.88;;;13.00;99.90;;;;;;5070952;28;20495;-61
2022/05/20 05:00:51;;;;;;;4.03;1.83;;;13.10;99.90;;;;;;5067952;28;20039;-62
2022/05/20 05:03:17;;;;;;;6.25;2.80;;;13.20;99.90;;;;;;5068287;28;20115;-62
2022/05/20 05:05:42;;;;;;;6.07;1.85;;;13.20;99.90;;;;;;5067862;28;20044;-62
2022/05/20 05:08:08;;;;;;;6.18;2.42;;;13.30;99.90;;;;;;5050118;28;20121;-62
2022/05/20 05:10:33;;;;;;;5.85;2.20;;;13.30;99.90;;;;;;5067827;28;20381;-61
2022/05/20 05:13:00;;;;;;;10.60;3.15;;;13.30;99.90;;;;;;5067188;28;20370;-60
2022/05/20 05:15:26;;;;;;;7.72;2.45;;;13.30;99.90;;;;;;5049863;28;20082;-61
2022/05/20 05:18:12;;;;;;;14.68;2.30;;;13.30;99.90;;;;;;5070229;28;20028;-61
2022/05/20 05:20:47;;;;;;;9.77;2.60;;;13.30;99.90;;;;;;5070154;28;20416;-61
2022/05/20 05:23:14;;;;;;;11.02;2.67;;;13.30;99.90;;;;;;5067776;28;20082;-61
2022/05/20 05:25:41;;;;;;;6.40;2.53;;;13.30;99.90;;;;;;5067857;28;20020;-61
2022/05/20 05:28:07;;;;;;;7.55;2.72;;;13.20;99.90;;;;;;5070001;28;20055;-61
2022/05/20 05:30:33;;;;;;;9.23;2.55;;;13.30;99.90;;;;;;5069915;28;20066;-61
2022/05/20 05:32:59;;;;;;;5.32;2.78;;;13.20;99.90;;;;;;5066384;28;20083;-61
2022/05/20 05:35:27;;;;;;;9.82;2.58;;;13.20;99.90;;;;;;5067489;28;20056;-61
2022/05/20 05:37:54;;;;;;;9.70;2.88;;;13.10;99.90;;;;;;5070264;28;20040;-61
2022/05/20 05:40:22;;;;;;;8.95;2.45;;;13.00;99.90;;;;;;5070569;28;20028;-61
2022/05/20 05:42:48;;;;;;;6.97;2.30;;;13.10;99.90;;;;;;5053790;28;20102;-61
2022/05/20 05:45:17;;;;;;;7.43;2.28;;;13.20;99.90;;;;;;5050324;28;20029;-61
2022/05/20 05:47:44;;;;;;;7.22;2.05;;;13.20;99.90;;;;;;5050066;28;20079;-61
2022/05/20 05:50:09;;;;;;;4.68;2.38;;;13.20;99.90;;;;;;5050114;28;20094;-61
2022/05/20 05:52:35;;;;;;;7.20;2.50;;;13.30;99.90;;;;;;5049959;28;20088;-61
2022/05/20 05:55:01;;;;;;;11.00;2.63;;;13.40;99.90;;;;;;5050220;28;20029;-61
2022/05/20 05:57:28;;;;;;;7.55;2.45;;;13.60;99.90;;;;;;5049842;28;20430;-61
2022/05/20 05:59:55;;;;;;;4.60;2.28;;;13.70;99.90;;;;;;5049627;28;20029;-61
2022/05/20 06:02:21;;;;;;;10.07;2.17;;;13.80;99.90;;;;;;5046746;28;20126;-61
2022/05/20 06:04:47;;;;;;;5.50;2.20;;;14.00;99.90;;;;;;5046810;28;20033;-61
2022/05/20 06:07:14;;;;;;;11.18;2.58;;;14.10;99.90;;;;;;5048590;28;20551;-61
2022/05/20 06:09:40;;;;;;;8.77;2.80;;;14.20;99.90;;;;;;5049858;28;20400;-61
2022/05/20 06:12:06;;;;;;;12.63;2.55;;;14.30;99.90;;;;;;5061788;28;20477;-61
2022/05/20 06:14:32;;;;;;;13.48;2.30;;;14.30;99.90;;;;;;5069575;28;20035;-61
2022/05/20 06:16:57;;;;;;;9.35;2.67;;;14.30;99.90;;;;;;5069635;28;20103;-62
2022/05/20 06:19:23;;;;;;;11.15;2.65;;;14.30;99.90;;;;;;5069678;28;20025;-61
2022/05/20 06:21:49;;;;;;;5.85;3.50;;;14.30;99.90;;;;;;5069969;28;20058;-61
2022/05/20 06:24:15;;;;;;;12.05;3.00;;;14.20;99.90;;;;;;5067468;28;20017;-61
2022/05/20 06:26:41;;;;;;;9.73;2.42;;;14.20;99.90;;;;;;5066472;28;20103;-61
2022/05/20 06:29:07;;;;;;;7.15;2.42;;;14.30;99.90;;;;;;5066534;28;20553;-61
2022/05/20 06:31:33;;;;;;;11.48;3.28;;;14.30;99.90;;;;;;5066643;28;20032;-61
2022/05/20 06:34:00;;;;;;;7.63;2.72;;;14.30;99.90;;;;;;5066183;28;20123;-61
2022/05/20 06:41:55;;;;;;;6.70;2.55;;;14.20;99.90;;;;;;5068327;28;20051;-61
2022/05/20 06:44:21;;;;;;;5.43;2.35;;;14.20;99.90;;;;;;5071613;28;20033;-61
2022/05/20 06:46:47;;;;;;;9.23;3.03;;;14.20;99.90;;;;;;5073602;28;20048;-61
2022/05/20 06:49:13;;;;;;;6.07;2.55;;;14.20;99.90;;;;;;5073281;28;20418;-61
2022/05/20 06:51:39;;;;;;;9.80;2.95;;;14.20;99.90;;;;;;5070301;28;20052;-62
2022/05/20 06:54:09;;;;;;;12.38;4.30;;;14.20;99.90;;;;;;5073171;28;20055;-62
2022/05/20 06:56:36;;;;;;;9.18;3.45;;;14.20;99.90;;;;;;5072981;28;20064;-62
2022/05/20 06:59:03;;;;;;;10.57;3.38;;;14.20;99.90;;;;;;5073180;28;20117;-61
2022/05/20 07:01:29;;;;;;;9.25;3.10;;;14.20;99.90;;;;;;5073111;28;20093;-61
2022/05/20 07:03:55;;;;;;;7.30;3.40;;;14.20;99.90;;;;;;5070042;28;20389;-61
2022/05/20 07:06:22;;;;;;;9.80;3.20;;;14.20;99.90;;;;;;5069531;28;20021;-61
2022/05/20 07:08:48;;;;;;;11.40;3.22;;;14.20;99.90;;;;;;5073090;28;20103;-61
2022/05/20 07:11:19;;;;;;;10.52;4.00;;;14.10;99.90;;;;;;5072974;28;20111;-61
2022/05/20 07:13:45;;;;;;;13.75;3.88;;;14.20;99.90;;;;;;5072828;28;20036;-61
2022/05/20 07:16:12;;;;;;;7.20;3.15;;;14.20;99.90;;;;;;5073034;28;20063;-60
2022/05/20 07:18:38;;;;;;;10.93;4.13;;;14.30;99.90;;;;;;5073037;28;20032;-61
2022/05/20 07:21:04;;;;;;;8.25;3.75;;;14.30;99.90;;;;;;5071289;28;20048;-61
2022/05/20 07:23:31;;;;;;;10.05;3.85;;;14.30;99.90;;;;;;5069814;28;20052;-61
2022/05/20 07:25:57;;;;;;;10.27;3.40;;;14.30;99.90;;;;;;5070530;28;20534;-61
2022/05/20 07:28:24;;;;;;;9.73;3.35;;;14.30;99.90;;;;;;5072940;28;20032;-61
2022/05/20 07:30:49;;;;;;;9.70;3.88;;;14.30;99.90;;;;;;5072468;28;20035;-61
2022/05/20 07:33:15;;;;;;;9.43;3.15;;;14.30;99.90;;;;;;5072907;28;20036;-61
2022/05/20 07:35:41;;;;;;;11.52;3.65;;;14.30;99.90;;;;;;5072917;28;20035;-61
2022/05/20 07:38:07;;;;;;;12.13;3.83;;;14.30;99.90;;;;;;5069609;28;20031;-61
2022/05/20 07:40:34;;;;;;;7.28;2.58;;;14.30;99.90;;;;;;5069593;28;20039;-61
2022/05/20 07:42:59;;;;;;;9.40;2.80;;;14.20;99.90;;;;;;5072095;28;20068;-60
2022/05/20 07:45:25;;;;;;;7.35;3.40;;;14.20;99.90;;;;;;5068957;28;20101;-61
2022/05/20 07:47:51;;;;;;;10.93;3.53;;;14.20;99.90;;;;;;5072267;28;20032;-61
2022/05/20 07:50:17;;;;;;;12.90;3.28;;;14.30;99.90;;;;;;5072515;28;20028;-61
2022/05/20 07:55:45;;;;;;;7.68;4.20;;;14.30;99.90;;;;;;5040550;28;20477;-61
2022/05/20 07:58:14;;;;;;;7.90;3.53;;;14.30;99.90;;;;;;5072365;28;20048;-61
2022/05/20 08:00:40;;;;;;;11.40;3.38;;;14.30;99.90;;;;;;5072042;28;20493;-61
2022/05/20 08:03:09;;;;;;;7.93;3.53;;;14.20;99.90;;;;;;5072194;28;20024;-61
2022/05/20 08:05:35;;;;;;;12.55;3.85;;;14.20;99.90;;;;;;5072196;28;20035;-62
2022/05/20 08:08:07;;;;;;;9.98;3.70;;;14.10;99.90;;;;;;5072382;28;20037;-62
2022/05/20 08:10:35;;;;;;;11.95;3.80;;;14.10;99.90;;;;;;5072045;28;20024;-62
2022/05/20 08:13:02;;;;;;;11.95;4.28;;;14.00;99.90;;;;;;5052026;28;20041;-62
2022/05/20 08:15:29;;;;;;;8.73;3.00;;;14.00;99.90;;;;;;5051662;28;20025;-63
2022/05/20 08:17:55;;;;;;;8.85;2.67;;;13.90;99.90;;;;;;5052024;28;20021;-62
2022/05/20 08:20:25;;;;;;;9.27;2.58;;;13.80;99.90;;;;;;5051773;28;20035;-62
2022/05/20 08:22:53;;;;;;;7.78;2.13;;;13.70;99.90;;;;;;5051195;28;20031;-62
2022/05/20 08:25:24;;;;;;;5.32;1.65;;;13.60;99.90;;;;;;5048873;28;20033;-61
2022/05/20 08:27:50;;;;;;;2.45;0.95;;;13.50;99.90;;;;;;5048644;28;20409;-61
2022/05/20 08:30:21;;;;;;;2.95;0.88;;;13.30;99.90;;;;;;5051601;28;20023;-62
2022/05/20 08:32:47;;;;;;;1.23;0.65;;;13.10;99.90;;;;;;5051767;28;20117;-62
2022/05/20 08:35:13;;;;;;;1.65;0.50;;;13.00;99.90;;;;;;5051733;28;20040;-62
2022/05/20 08:37:42;;;;;;;1.00;0.20;;;12.70;99.90;;;;;;5051541;28;20028;-62
2022/05/20 08:40:16;;;;;;;1.38;0.50;;;12.70;99.90;;;;;;5051461;28;20025;-62
2022/05/20 08:42:43;;;;;;;1.05;0.40;;;12.60;99.90;;;;;;5068833;28;20132;-62
2022/05/20 08:45:10;;;;;;;2.25;0.90;;;12.50;99.90;;;;;;5071112;28;20508;-62
2022/05/20 08:47:50;;;;;;;1.02;0.57;;;12.50;99.90;;;;;;5071329;28;20020;-62
2022/05/20 08:50:30;;;;;;;0.73;0.60;;;12.40;99.90;;;;;;5071278;28;20040;-62
2022/05/20 08:52:57;;;;;;;3.25;0.85;;;12.40;99.90;;;;;;5071316;28;20040;-62
2022/05/20 08:55:23;;;;;;;3.00;0.47;;;12.30;99.90;;;;;;5068103;28;20025;-62
2022/05/20 08:57:57;;;;;;;0.40;0.30;;;12.20;99.90;;;;;;5070948;28;20058;-62
2022/05/20 09:00:23;;;;;;;2.53;0.47;;;12.10;99.90;;;;;;5070881;28;20035;-62
2022/05/20 09:02:49;;;;;;;1.20;0.40;;;12.00;99.90;;;;;;5054332;28;20409;-61
2022/05/20 09:05:25;;;;;;;0.32;0.32;;;11.90;99.90;;;;;;5061891;28;20028;-61
2022/05/20 09:08:05;;;;;;;0.98;0.38;;;11.90;99.90;;;;;;5052634;28;20154;-61
2022/05/20 09:10:35;;;;;;;1.45;0.40;;;11.90;99.90;;;;;;5050881;28;20385;-61
2022/05/20 09:15:43;;;;;;;3.25;0.40;;;11.80;99.90;;;;;;5050900;28;20067;-60
2022/05/20 09:16:15;;;;;;;1.88;0.60;;;11.80;99.90;;;;;;5050616;28;20478;-61
2022/05/20 09:18:45;;;;;;;;;;;11.80;99.90;;;;;;5051191;28;20029;-60
2022/05/20 09:21:28;;;;;;;3.33;0.38;;;11.70;99.90;;;;;;5050610;28;20361;-60
2022/05/20 09:23:57;;;;;;;1.05;0.30;;;11.70;99.90;;;;;;5048777;28;20020;-60
2022/05/20 09:26:45;;;;;;;1.17;0.77;;;11.70;99.90;;;;;;5047410;28;20037;-60
2022/05/20 09:29:26;;;;;;;2.25;0.40;;;11.70;99.90;;;;;;5048806;28;20406;-61
2022/05/20 09:31:58;;;;;;;2.38;0.40;;;11.70;99.90;;;;;;5050524;28;20033;-60
2022/05/20 09:34:27;;;;;;;1.10;0.30;;;11.70;99.90;;;;;;5050425;28;20029;-61
2022/05/20 09:37:11;;;;;;;1.30;0.38;;;11.60;99.90;;;;;;5050365;28;20446;-62
2022/05/20 09:39:45;;;;;;;1.77;0.70;;;11.50;99.90;;;;;;5107748;27;1270469;-60
2022/05/20 09:42:23;;;;;;;0.90;0.40;;;11.60;99.90;;;;;;5128067;27;20024;-60
2022/05/20 09:44:58;;;;;;;2.88;0.93;;;11.60;99.90;;;;;;5128179;27;20522;-60
2022/05/20 09:47:23;;;;;;;2.20;0.57;;;11.50;99.90;;;;;;5127814;27;20033;-61
2022/05/20 09:49:52;;;;;;;0.77;0.40;;;11.40;99.90;;;;;;5128182;28;20016;-61
2022/05/20 09:52:50;;;;;;;2.33;0.80;;;11.40;99.90;;;;;;5128173;28;20038;-61
2022/05/20 09:57:55;;;;;;;1.33;0.28;;;11.40;99.90;;;;;;3768438;22;27222;-62
2022/05/20 10:00:28;;;;;;;3.85;0.47;;;11.40;99.90;;;;;;5034436;28;20443;-61
2022/05/20 10:03:03;;;;;;;2.08;0.35;;;11.50;99.90;;;;;;5026876;28;20498;-61
2022/05/20 10:05:31;;;;;;;1.05;0.38;;;11.50;99.90;;;;;;5027024;28;20026;-61
2022/05/20 10:08:20;;;;;;;1.98;0.60;;;11.40;99.90;;;;;;5026959;28;20030;-61
2022/05/20 10:11:09;;;;;;;2.63;0.32;;;11.50;99.90;;;;;;5029485;28;20042;-66
2022/05/20 10:13:52;;;;;;;1.50;0.43;;;11.60;99.90;;;;;;5045579;28;20100;-67
2022/05/20 10:16:31;;;;;;;0.98;0.40;;;11.50;99.90;;;;;;5041515;28;20026;-68
2022/05/20 10:19:38;;;;;;;2.60;0.40;;;11.50;99.90;;;;;;5026302;28;20120;-67
2022/05/20 10:22:39;;;;;;;0.88;0.40;;;11.50;99.90;;;;;;4989821;28;20531;-65
2022/05/20 10:25:04;;;;;;;;;;;11.60;99.90;;;;;;5023945;28;20026;-65
2022/05/20 10:27:36;;;;;;;1.55;0.60;;;11.60;99.90;;;;;;5031833;28;19988;-66
2022/05/20 10:33:05;;;;;;;2.50;0.82;;;11.60;99.90;;;;;;5046698;28;20088;-63
2022/05/20 10:35:49;;;;;;;2.13;0.80;;;11.60;99.90;;;;;;5046381;28;20028;-65
2022/05/20 10:38:37;;;;;;;2.30;0.68;;;11.60;99.90;;;;;;5045981;28;20091;-62
2022/05/20 10:41:27;;;;;;;1.58;0.40;;;11.70;99.90;;;;;;5046188;28;20047;-63
2022/05/20 10:50:25;;;;;;;1.25;0.60;;;12.00;99.90;;;;;;5025185;28;20076;-66
2022/05/20 10:53:00;;;;;;;2.35;0.73;;;12.20;99.90;;;;;;5009429;28;20041;-66
2022/05/20 10:55:34;;;;;;;2.55;0.70;;;12.70;99.90;;;;;;5012575;28;20179;-67
2022/05/20 10:58:26;;;;;;;2.05;0.47;;;13.00;99.90;;;;;;5025369;28;20103;-68
2022/05/20 11:00:55;;;;;;;1.88;0.52;;;13.20;99.90;;;;;;5012912;28;20088;-67
2022/05/20 11:03:56;;;;;;;0.50;0.40;;;13.20;99.90;;;;;;5009914;28;20358;-66
2022/05/20 11:06:37;;;;;;;1.30;0.63;;;13.20;99.90;;;;;;5009887;28;20029;-67
2022/05/20 11:09:07;;;;;;;3.80;0.77;;;13.10;99.90;;;;;;5025551;28;20514;-67
2022/05/20 11:11:34;;;;;;;2.53;0.80;;;12.90;99.90;;;;;;5028129;28;20516;-67
2022/05/20 11:14:22;;;;;;;1.60;0.63;;;12.90;99.90;;;;;;5024481;28;20032;-65
2022/05/20 11:16:59;;;;;;;6.47;0.82;;;13.00;99.90;;;;;;5007722;28;20118;-66
2022/05/20 11:19:48;;;;;;;1.42;0.60;;;12.90;99.90;;;;;;5009517;28;20038;-66
2022/05/20 11:22:40;;;;;;;2.20;0.63;;;12.90;99.90;;;;;;5009189;28;20508;-65
2022/05/20 11:25:12;;;;;;;1.20;0.55;;;12.90;99.90;;;;;;5009179;28;20080;-65
2022/05/20 11:27:47;;;;;;;1.95;0.77;;;12.70;99.90;;;;;;5018741;28;20026;-65
2022/05/20 11:30:25;;;;;;;1.65;0.63;;;12.70;99.90;;;;;;5028733;28;20033;-65
2022/05/20 11:32:51;;;;;;;4.07;0.70;;;12.50;99.90;;;;;;5028901;28;20522;-67
2022/05/20 11:35:23;;;;;;;1.20;0.60;;;12.50;99.90;;;;;;5028968;28;20030;-67
2022/05/20 11:38:14;;;;;;;0.47;0.40;;;12.50;99.90;;;;;;5028810;28;20025;-67
2022/05/20 11:41:07;;;;;;;5.22;1.23;;;12.50;99.90;;;;;;5028501;28;20483;-67
2022/05/20 11:43:48;;;;;;;1.05;0.68;;;12.60;99.90;;;;;;5028958;28;20048;-67
2022/05/20 11:46:24;;;;;;;1.90;0.85;;;12.70;99.90;;;;;;5029146;28;20034;-68
2022/05/20 11:48:55;;;;;;;1.73;0.80;;;12.90;99.90;;;;;;5028551;28;20108;-66
2022/05/20 11:51:33;;;;;;;0.85;0.80;;;12.80;99.90;;;;;;5028627;28;20048;-66
2022/05/20 11:54:05;;;;;;;1.55;1.02;;;13.00;99.90;;;;;;5028407;28;20021;-66
2022/05/20 11:56:43;;;;;;;1.75;0.85;;;13.10;99.90;;;;;;5027257;28;20029;-66
2022/05/20 11:59:30;;;;;;;1.85;1.05;;;13.20;99.90;;;;;;5027062;28;20095;-67
2022/05/20 12:01:59;;;;;;;1.23;0.77;;;13.40;99.90;;;;;;5026518;28;20266;-66
2022/05/20 12:04:27;;;;;;;3.10;0.95;;;13.50;99.90;;;;;;5028773;28;20336;-66
2022/05/20 12:07:01;;;;;;;2.83;0.82;;;13.60;99.90;;;;;;5010287;28;20345;-66
2022/05/20 12:09:47;;;;;;;1.45;0.82;;;13.70;99.90;;;;;;5028206;28;20488;-66
2022/05/20 12:12:21;;;;;;;2.45;1.42;;;13.80;99.90;;;;;;5027856;28;20079;-66
2022/05/20 12:14:59;;;;;;;4.68;1.55;;;13.90;99.90;;;;;;5028222;28;20061;-66
2022/05/20 12:17:33;;;;;;;2.72;1.13;;;13.90;99.90;;;;;;5026574;28;20029;-65
2022/05/20 12:26:07;;;;;;;2.58;0.80;;;14.50;99.90;;;;;;5027801;28;20119;-66
2022/05/20 12:28:39;;;;;;;2.05;0.90;;;14.70;99.90;;;;;;5010527;28;20034;-67
2022/05/20 12:31:15;;;;;;;0.68;0.47;;;14.60;99.90;;;;;;4990517;28;20439;-68
2022/05/20 12:34:03;;;;;;;1.55;0.88;;;14.60;99.90;;;;;;5008064;28;20504;-67
2022/05/20 12:36:29;;;;;;;4.97;1.08;;;14.70;99.90;;;;;;5007995;28;20034;-67
2022/05/20 12:39:06;;;;;;;2.42;1.17;;;14.60;99.90;;;;;;5007682;28;20030;-68
2022/05/20 12:41:55;;;;;;;3.88;0.95;;;14.70;99.90;;;;;;5007668;28;20022;-68
2022/05/20 12:44:21;;;;;;;1.52;1.15;;;14.90;99.90;;;;;;4994609;28;20034;-68
2022/05/20 12:47:05;;;;;;;2.03;1.00;;;15.20;99.90;;;;;;5007503;28;20383;-68
2022/05/20 12:49:43;;;;;;;2.83;1.20;;;15.80;99.90;;;;;;5007740;28;20033;-69
2022/05/20 12:52:18;;;;;;;1.95;1.13;;;16.10;99.90;;;;;;5008184;28;20034;-69
2022/05/20 12:54:50;;;;;;;1.40;0.85;;;16.60;99.90;;;;;;5025491;28;20108;-67
2022/05/20 12:57:21;;;;;;;3.15;0.82;;;16.80;99.90;;;;;;5027257;28;20017;-66
2022/05/20 12:59:54;;;;;;;3.45;1.10;;;17.30;99.90;;;;;;5027659;28;20042;-66
2022/05/20 13:02:21;;;;;;;2.35;0.73;;;17.40;99.90;;;;;;5027587;28;20437;-66
2022/05/20 13:04:56;;;;;;;1.65;0.82;;;17.60;99.90;;;;;;5027584;28;20108;-66
2022/05/20 13:07:21;;;;;;;1.10;0.50;;;18.20;99.90;;;;;;5027148;28;20479;-66
2022/05/20 13:09:48;;;;;;;1.10;0.40;;;20.30;99.90;;;;;;5027048;28;20093;-66
2022/05/20 13:12:18;;;;;;;2.28;0.40;;;22.70;99.90;;;;;;5026320;28;20025;-66
2022/05/20 13:14:53;;;;;;;1.05;0.40;;;24.60;99.90;;;;;;5027036;28;20043;-66
2022/05/20 13:17:21;;;;;;;1.33;0.40;;;25.30;97.10;;;;;;5027034;28;20030;-66
2022/05/20 13:19:50;;;;;;;3.40;1.13;;;25.30;93.80;;;;;;5027083;28;20040;-66
2022/05/20 13:22:21;;;;;;;0.40;0.40;;;24.40;94.40;;;;;;5024358;28;20017;-65
2022/05/20 13:25:06;;;;;;;1.67;0.40;;;23.90;95.90;;;;;;5026597;28;20033;-64
2022/05/20 13:27:31;;;;;;;0.70;0.70;;;23.60;95.00;;;;;;5017754;28;20022;-64
2022/05/20 13:30:23;;;;;;;0.30;0.28;;;23.80;96.50;;;;;;5007123;28;20447;-63
2022/05/20 13:32:49;;;;;;;0.50;0.50;;;24.20;95.30;;;;;;5006852;28;20384;-63
2022/05/20 13:35:15;;;;;;;1.17;0.80;;;23.70;95.90;;;;;;5007029;28;20105;-66
2022/05/20 13:37:59;;;;;;;1.33;0.50;;;22.70;97.70;;;;;;5006755;28;20488;-64
2022/05/20 13:40:39;;;;;;;2.35;1.08;;;21.60;99.90;;;;;;5006750;28;20504;-64
2022/05/20 13:43:12;;;;;;;1.15;0.50;;;21.50;99.90;;;;;;5006873;28;20022;-65
2022/05/20 13:51:39;;;;;;;2.67;1.10;;;18.70;99.90;;;;;;5007328;28;20066;-63